Hornepayne, Canada
Current Conditions -  °F | °C
As of 2:00 PM on Saturday 25 Oct 2014 (Local Time) from CYXZ Reporting Station
Broken Clouds Broken Clouds  
Wind Chill:   Ceiling: 1100
Heat Index:   Visibility: 15mi
Dew Point:   Wind: 6mph
Humidity: 62%   Direction: 270°W
Pressure: 29.54"   Gusts: NA
Location:  49.22°N, 84.78°W
Report Text: CYXZ 251800Z 27005KT 210V320 15SM BKN011 09/02 A2954 RMK SC7 SLP011
Loading
Personal Weather Stations






























Interactive Weather Map
Tropical Storm Tracking
New forecast layout! Learn more

10-Day Weather Forecast

Advertisements
Track Severe Weather on mobile